sensor_id;sensor_type;location;lat;lon;timestamp;temperature;humidity
18694;DHT22;9477;51.414;10.362;2022-07-10T00:00:25;17.60;61.90
18694;DHT22;9477;51.414;10.362;2022-07-10T00:02:28;17.60;61.80
18694;DHT22;9477;51.414;10.362;2022-07-10T00:04:31;17.50;61.90
18694;DHT22;9477;51.414;10.362;2022-07-10T00:06:34;17.50;62.00
18694;DHT22;9477;51.414;10.362;2022-07-10T00:08:37;17.50;62.00
18694;DHT22;9477;51.414;10.362;2022-07-10T00:10:42;17.30;62.30
18694;DHT22;9477;51.414;10.362;2022-07-10T00:12:44;17.20;62.40
18694;DHT22;9477;51.414;10.362;2022-07-10T00:14:47;17.30;62.50
18694;DHT22;9477;51.414;10.362;2022-07-10T00:16:50;17.20;62.70
18694;DHT22;9477;51.414;10.362;2022-07-10T00:18:53;17.30;62.90
18694;DHT22;9477;51.414;10.362;2022-07-10T00:20:56;17.40;62.80
18694;DHT22;9477;51.414;10.362;2022-07-10T00:22:59;17.40;63.00
18694;DHT22;9477;51.414;10.362;2022-07-10T00:25:03;17.50;62.70
18694;DHT22;9477;51.414;10.362;2022-07-10T00:27:07;17.60;62.60
18694;DHT22;9477;51.414;10.362;2022-07-10T00:29:10;17.60;62.30
18694;DHT22;9477;51.414;10.362;2022-07-10T00:31:12;17.60;62.30
18694;DHT22;9477;51.414;10.362;2022-07-10T00:33:15;17.40;62.10
18694;DHT22;9477;51.414;10.362;2022-07-10T00:35:18;17.40;62.20
18694;DHT22;9477;51.414;10.362;2022-07-10T00:37:21;17.50;62.20
18694;DHT22;9477;51.414;10.362;2022-07-10T00:39:24;17.60;62.00
18694;DHT22;9477;51.414;10.362;2022-07-10T00:41:26;17.60;61.80
18694;DHT22;9477;51.414;10.362;2022-07-10T00:43:51;17.60;61.60
18694;DHT22;9477;51.414;10.362;2022-07-10T00:45:54;17.70;61.70
18694;DHT22;9477;51.414;10.362;2022-07-10T00:47:57;17.60;61.30
18694;DHT22;9477;51.414;10.362;2022-07-10T00:49:59;17.60;60.90
18694;DHT22;9477;51.414;10.362;2022-07-10T00:52:06;17.50;60.40
18694;DHT22;9477;51.414;10.362;2022-07-10T00:54:09;17.30;60.00
18694;DHT22;9477;51.414;10.362;2022-07-10T00:56:12;17.20;60.40
18694;DHT22;9477;51.414;10.362;2022-07-10T00:58:16;17.10;60.80
18694;DHT22;9477;51.414;10.362;2022-07-10T01:00:20;17.00;60.70
18694;DHT22;9477;51.414;10.362;2022-07-10T01:02:23;17.10;60.90
18694;DHT22;9477;51.414;10.362;2022-07-10T01:04:26;17.10;60.80
18694;DHT22;9477;51.414;10.362;2022-07-10T01:06:29;16.90;60.80
18694;DHT22;9477;51.414;10.362;2022-07-10T01:08:33;17.00;61.20
18694;DHT22;9477;51.414;10.362;2022-07-10T01:10:37;17.00;61.10
18694;DHT22;9477;51.414;10.362;2022-07-10T01:12:40;17.10;61.40
18694;DHT22;9477;51.414;10.362;2022-07-10T01:14:44;17.10;61.00
18694;DHT22;9477;51.414;10.362;2022-07-10T01:16:48;17.10;61.10
18694;DHT22;9477;51.414;10.362;2022-07-10T01:18:51;16.80;61.00
18694;DHT22;9477;51.414;10.362;2022-07-10T01:20:56;17.00;61.40
18694;DHT22;9477;51.414;10.362;2022-07-10T01:22:59;17.00;61.50
18694;DHT22;9477;51.414;10.362;2022-07-10T01:25:02;17.00;61.50
18694;DHT22;9477;51.414;10.362;2022-07-10T01:27:05;17.00;61.40
18694;DHT22;9477;51.414;10.362;2022-07-10T01:29:10;17.00;61.30
18694;DHT22;9477;51.414;10.362;2022-07-10T01:31:13;16.80;61.10
18694;DHT22;9477;51.414;10.362;2022-07-10T01:33:16;16.90;61.10
18694;DHT22;9477;51.414;10.362;2022-07-10T01:35:19;17.00;61.20
18694;DHT22;9477;51.414;10.362;2022-07-10T01:37:23;17.00;60.90
18694;DHT22;9477;51.414;10.362;2022-07-10T01:39:26;17.00;60.60
18694;DHT22;9477;51.414;10.362;2022-07-10T01:41:29;16.90;60.60
18694;DHT22;9477;51.414;10.362;2022-07-10T01:43:32;16.90;60.80
18694;DHT22;9477;51.414;10.362;2022-07-10T01:45:34;16.90;60.80
18694;DHT22;9477;51.414;10.362;2022-07-10T01:47:38;16.90;60.80
18694;DHT22;9477;51.414;10.362;2022-07-10T01:49:41;16.90;60.80
18694;DHT22;9477;51.414;10.362;2022-07-10T01:51:43;16.80;60.60
18694;DHT22;9477;51.414;10.362;2022-07-10T01:53:47;16.90;60.40
18694;DHT22;9477;51.414;10.362;2022-07-10T01:55:50;16.80;60.10
18694;DHT22;9477;51.414;10.362;2022-07-10T01:57:53;16.60;60.20
18694;DHT22;9477;51.414;10.362;2022-07-10T01:59:56;16.30;60.10
18694;DHT22;9477;51.414;10.362;2022-07-10T02:01:59;16.50;60.60
18694;DHT22;9477;51.414;10.362;2022-07-10T02:04:02;16.60;60.70
18694;DHT22;9477;51.414;10.362;2022-07-10T02:06:22;16.60;60.60
18694;DHT22;9477;51.414;10.362;2022-07-10T02:08:25;16.60;60.50
18694;DHT22;9477;51.414;10.362;2022-07-10T02:10:29;16.70;60.60
18694;DHT22;9477;51.414;10.362;2022-07-10T02:12:32;16.50;60.40
18694;DHT22;9477;51.414;10.362;2022-07-10T02:14:35;16.60;61.30
18694;DHT22;9477;51.414;10.362;2022-07-10T02:16:38;16.40;60.80
18694;DHT22;9477;51.414;10.362;2022-07-10T02:18:40;16.50;60.90
18694;DHT22;9477;51.414;10.362;2022-07-10T02:20:45;16.50;61.00
18694;DHT22;9477;51.414;10.362;2022-07-10T02:22:48;16.50;61.00
18694;DHT22;9477;51.414;10.362;2022-07-10T02:24:50;16.40;60.80
18694;DHT22;9477;51.414;10.362;2022-07-10T02:26:56;16.40;60.90
18694;DHT22;9477;51.414;10.362;2022-07-10T02:28:58;16.50;61.10
18694;DHT22;9477;51.414;10.362;2022-07-10T02:31:01;16.60;61.00
18694;DHT22;9477;51.414;10.362;2022-07-10T02:33:04;16.70;60.90
18694;DHT22;9477;51.414;10.362;2022-07-10T02:35:07;16.70;60.80
18694;DHT22;9477;51.414;10.362;2022-07-10T02:37:10;16.80;60.80
18694;DHT22;9477;51.414;10.362;2022-07-10T02:39:13;16.80;60.80
18694;DHT22;9477;51.414;10.362;2022-07-10T02:41:16;16.90;60.60
18694;DHT22;9477;51.414;10.362;2022-07-10T02:43:20;17.00;60.50
18694;DHT22;9477;51.414;10.362;2022-07-10T02:45:23;16.90;60.40
18694;DHT22;9477;51.414;10.362;2022-07-10T02:47:25;17.00;60.60
18694;DHT22;9477;51.414;10.362;2022-07-10T02:49:28;17.00;60.40
18694;DHT22;9477;51.414;10.362;2022-07-10T02:51:31;17.00;60.40
18694;DHT22;9477;51.414;10.362;2022-07-10T02:53:34;17.00;60.40
18694;DHT22;9477;51.414;10.362;2022-07-10T02:55:37;16.60;60.30
18694;DHT22;9477;51.414;10.362;2022-07-10T02:57:40;16.70;60.90
18694;DHT22;9477;51.414;10.362;2022-07-10T02:59:44;16.60;61.20
18694;DHT22;9477;51.414;10.362;2022-07-10T03:01:46;16.60;61.10
18694;DHT22;9477;51.414;10.362;2022-07-10T03:03:49;16.50;61.20
18694;DHT22;9477;51.414;10.362;2022-07-10T03:05:52;16.70;61.20
18694;DHT22;9477;51.414;10.362;2022-07-10T03:07:55;16.60;61.20
18694;DHT22;9477;51.414;10.362;2022-07-10T03:09:58;16.70;61.00
18694;DHT22;9477;51.414;10.362;2022-07-10T03:12:01;16.90;61.00
18694;DHT22;9477;51.414;10.362;2022-07-10T03:14:03;17.00;60.90
18694;DHT22;9477;51.414;10.362;2022-07-10T03:16:08;16.90;60.30
18694;DHT22;9477;51.414;10.362;2022-07-10T03:18:11;16.90;60.50
18694;DHT22;9477;51.414;10.362;2022-07-10T03:20:14;16.90;60.60
18694;DHT22;9477;51.414;10.362;2022-07-10T03:22:17;17.00;60.70
18694;DHT22;9477;51.414;10.362;2022-07-10T03:24:20;16.90;60.70
18694;DHT22;9477;51.414;10.362;2022-07-10T03:26:23;16.90;60.70
18694;DHT22;9477;51.414;10.362;2022-07-10T03:28:25;17.00;61.30
18694;DHT22;9477;51.414;10.362;2022-07-10T03:30:28;16.90;60.40
18694;DHT22;9477;51.414;10.362;2022-07-10T03:32:32;16.90;60.60
18694;DHT22;9477;51.414;10.362;2022-07-10T03:34:35;16.60;60.60
18694;DHT22;9477;51.414;10.362;2022-07-10T03:36:38;16.60;61.00
18694;DHT22;9477;51.414;10.362;2022-07-10T03:38:41;16.40;60.90
18694;DHT22;9477;51.414;10.362;2022-07-10T03:40:45;16.60;61.30
18694;DHT22;9477;51.414;10.362;2022-07-10T03:42:49;16.70;61.50
18694;DHT22;9477;51.414;10.362;2022-07-10T03:44:52;16.60;61.70
18694;DHT22;9477;51.414;10.362;2022-07-10T03:46:55;16.40;61.70
18694;DHT22;9477;51.414;10.362;2022-07-10T03:48:59;16.40;62.30
18694;DHT22;9477;51.414;10.362;2022-07-10T03:51:02;16.40;62.50
18694;DHT22;9477;51.414;10.362;2022-07-10T03:53:05;16.20;62.80
18694;DHT22;9477;51.414;10.362;2022-07-10T03:55:09;16.30;63.10
18694;DHT22;9477;51.414;10.362;2022-07-10T03:57:12;16.30;63.40
18694;DHT22;9477;51.414;10.362;2022-07-10T03:59:32;16.40;63.30
18694;DHT22;9477;51.414;10.362;2022-07-10T04:01:35;16.40;63.30
18694;DHT22;9477;51.414;10.362;2022-07-10T04:03:38;16.60;63.40
18694;DHT22;9477;51.414;10.362;2022-07-10T04:05:42;16.40;63.20
18694;DHT22;9477;51.414;10.362;2022-07-10T04:07:45;16.40;63.30
18694;DHT22;9477;51.414;10.362;2022-07-10T04:09:47;16.60;63.50
18694;DHT22;9477;51.414;10.362;2022-07-10T04:11:50;16.60;63.30
18694;DHT22;9477;51.414;10.362;2022-07-10T04:13:53;16.60;63.40
18694;DHT22;9477;51.414;10.362;2022-07-10T04:15:56;16.50;63.60
18694;DHT22;9477;51.414;10.362;2022-07-10T04:17:59;16.40;63.80
18694;DHT22;9477;51.414;10.362;2022-07-10T04:20:02;16.60;64.00
18694;DHT22;9477;51.414;10.362;2022-07-10T04:22:06;16.70;64.30
18694;DHT22;9477;51.414;10.362;2022-07-10T04:24:09;16.60;64.20
18694;DHT22;9477;51.414;10.362;2022-07-10T04:26:12;16.60;64.40
18694;DHT22;9477;51.414;10.362;2022-07-10T04:28:14;16.50;64.40
18694;DHT22;9477;51.414;10.362;2022-07-10T04:30:17;16.40;64.70
18694;DHT22;9477;51.414;10.362;2022-07-10T04:32:21;16.40;64.80
18694;DHT22;9477;51.414;10.362;2022-07-10T04:34:24;16.60;65.00
18694;DHT22;9477;51.414;10.362;2022-07-10T04:36:27;16.60;64.80
18694;DHT22;9477;51.414;10.362;2022-07-10T04:38:31;16.60;64.90
18694;DHT22;9477;51.414;10.362;2022-07-10T04:40:34;16.60;65.00
18694;DHT22;9477;51.414;10.362;2022-07-10T04:42:37;16.70;65.00
18694;DHT22;9477;51.414;10.362;2022-07-10T04:44:39;16.60;65.10
18694;DHT22;9477;51.414;10.362;2022-07-10T04:46:43;16.50;65.20
18694;DHT22;9477;51.414;10.362;2022-07-10T04:48:46;16.50;65.40
18694;DHT22;9477;51.414;10.362;2022-07-10T04:50:49;16.60;65.40
18694;DHT22;9477;51.414;10.362;2022-07-10T04:52:52;16.80;65.30
18694;DHT22;9477;51.414;10.362;2022-07-10T04:54:56;16.80;65.00
18694;DHT22;9477;51.414;10.362;2022-07-10T04:56:59;16.80;64.80
18694;DHT22;9477;51.414;10.362;2022-07-10T04:59:02;16.90;65.50
18694;DHT22;9477;51.414;10.362;2022-07-10T05:01:05;16.80;64.60
18694;DHT22;9477;51.414;10.362;2022-07-10T05:03:08;16.90;64.90
18694;DHT22;9477;51.414;10.362;2022-07-10T05:05:11;16.70;64.90
18694;DHT22;9477;51.414;10.362;2022-07-10T05:07:14;16.80;65.00
18694;DHT22;9477;51.414;10.362;2022-07-10T05:09:17;16.70;65.20
18694;DHT22;9477;51.414;10.362;2022-07-10T05:11:23;16.70;65.20
18694;DHT22;9477;51.414;10.362;2022-07-10T05:13:27;16.80;65.20
18694;DHT22;9477;51.414;10.362;2022-07-10T05:15:30;16.70;65.20
18694;DHT22;9477;51.414;10.362;2022-07-10T05:17:32;16.70;65.60
18694;DHT22;9477;51.414;10.362;2022-07-10T05:19:35;16.60;65.70
18694;DHT22;9477;51.414;10.362;2022-07-10T05:21:38;16.70;66.00
18694;DHT22;9477;51.414;10.362;2022-07-10T05:23:41;16.60;66.70
18694;DHT22;9477;51.414;10.362;2022-07-10T05:25:44;16.70;66.00
18694;DHT22;9477;51.414;10.362;2022-07-10T05:27:48;16.30;66.20
18694;DHT22;9477;51.414;10.362;2022-07-10T05:29:51;16.60;66.80
18694;DHT22;9477;51.414;10.362;2022-07-10T05:31:53;16.30;66.90
18694;DHT22;9477;51.414;10.362;2022-07-10T05:33:56;16.30;67.10
18694;DHT22;9477;51.414;10.362;2022-07-10T05:35:59;16.20;67.40
18694;DHT22;9477;51.414;10.362;2022-07-10T05:38:02;16.40;67.80
18694;DHT22;9477;51.414;10.362;2022-07-10T05:40:06;16.30;67.50
18694;DHT22;9477;51.414;10.362;2022-07-10T05:42:09;16.10;68.10
18694;DHT22;9477;51.414;10.362;2022-07-10T05:44:13;16.30;68.30
18694;DHT22;9477;51.414;10.362;2022-07-10T05:46:16;16.40;68.30
18694;DHT22;9477;51.414;10.362;2022-07-10T05:48:19;16.60;68.10
18694;DHT22;9477;51.414;10.362;2022-07-10T05:50:22;16.40;68.00
18694;DHT22;9477;51.414;10.362;2022-07-10T05:52:25;16.30;68.30
18694;DHT22;9477;51.414;10.362;2022-07-10T05:54:28;16.30;68.20
18694;DHT22;9477;51.414;10.362;2022-07-10T05:56:30;16.10;68.40
18694;DHT22;9477;51.414;10.362;2022-07-10T05:58:33;16.40;68.70
18694;DHT22;9477;51.414;10.362;2022-07-10T06:00:38;16.50;68.50
18694;DHT22;9477;51.414;10.362;2022-07-10T06:02:41;16.70;68.20
18694;DHT22;9477;51.414;10.362;2022-07-10T06:04:43;16.50;67.70
18694;DHT22;9477;51.414;10.362;2022-07-10T06:06:46;16.50;67.80
18694;DHT22;9477;51.414;10.362;2022-07-10T06:08:49;16.70;67.90
18694;DHT22;9477;51.414;10.362;2022-07-10T06:10:52;16.60;67.50
18694;DHT22;9477;51.414;10.362;2022-07-10T06:12:54;16.70;67.90
18694;DHT22;9477;51.414;10.362;2022-07-10T06:14:57;16.70;68.10
18694;DHT22;9477;51.414;10.362;2022-07-10T06:17:02;16.80;68.00
18694;DHT22;9477;51.414;10.362;2022-07-10T06:19:05;17.00;68.10
18694;DHT22;9477;51.414;10.362;2022-07-10T06:21:08;16.90;67.30
18694;DHT22;9477;51.414;10.362;2022-07-10T06:23:11;17.10;67.40
18694;DHT22;9477;51.414;10.362;2022-07-10T06:25:14;16.90;67.70
18694;DHT22;9477;51.414;10.362;2022-07-10T06:27:17;16.90;66.90
18694;DHT22;9477;51.414;10.362;2022-07-10T06:29:19;16.90;66.90
18694;DHT22;9477;51.414;10.362;2022-07-10T06:31:23;17.10;67.10
18694;DHT22;9477;51.414;10.362;2022-07-10T06:33:27;17.10;66.50
18694;DHT22;9477;51.414;10.362;2022-07-10T06:35:30;17.10;66.50
18694;DHT22;9477;51.414;10.362;2022-07-10T06:37:33;17.10;66.50
18694;DHT22;9477;51.414;10.362;2022-07-10T06:39:35;17.20;66.70
18694;DHT22;9477;51.414;10.362;2022-07-10T06:41:38;16.70;65.80
18694;DHT22;9477;51.414;10.362;2022-07-10T06:43:41;16.70;66.00
18694;DHT22;9477;51.414;10.362;2022-07-10T06:45:44;16.90;66.80
18694;DHT22;9477;51.414;10.362;2022-07-10T06:47:47;16.80;66.70
18694;DHT22;9477;51.414;10.362;2022-07-10T06:50:01;17.00;66.80
18694;DHT22;9477;51.414;10.362;2022-07-10T06:52:05;17.20;66.30
18694;DHT22;9477;51.414;10.362;2022-07-10T06:54:12;17.10;66.20
18694;DHT22;9477;51.414;10.362;2022-07-10T06:56:15;17.20;66.40
18694;DHT22;9477;51.414;10.362;2022-07-10T06:58:18;17.30;66.20
18694;DHT22;9477;51.414;10.362;2022-07-10T07:00:21;17.40;66.20
18694;DHT22;9477;51.414;10.362;2022-07-10T07:02:24;17.60;66.00
18694;DHT22;9477;51.414;10.362;2022-07-10T07:04:27;17.60;65.00
18694;DHT22;9477;51.414;10.362;2022-07-10T07:06:31;18.00;65.10
18694;DHT22;9477;51.414;10.362;2022-07-10T07:08:36;17.90;64.40
18694;DHT22;9477;51.414;10.362;2022-07-10T07:10:40;18.00;64.20
18694;DHT22;9477;51.414;10.362;2022-07-10T07:12:42;18.10;64.90
18694;DHT22;9477;51.414;10.362;2022-07-10T07:14:45;17.90;63.70
18694;DHT22;9477;51.414;10.362;2022-07-10T07:16:48;18.30;63.80
18694;DHT22;9477;51.414;10.362;2022-07-10T07:19:00;18.50;64.00
18694;DHT22;9477;51.414;10.362;2022-07-10T07:21:06;18.40;62.40
18694;DHT22;9477;51.414;10.362;2022-07-10T07:23:27;18.20;61.90
18694;DHT22;9477;51.414;10.362;2022-07-10T07:25:29;18.40;61.60
18694;DHT22;9477;51.414;10.362;2022-07-10T07:27:33;18.40;61.80
18694;DHT22;9477;51.414;10.362;2022-07-10T07:29:36;18.30;61.80
18694;DHT22;9477;51.414;10.362;2022-07-10T07:31:39;18.20;61.60
18694;DHT22;9477;51.414;10.362;2022-07-10T07:33:43;18.40;61.90
18694;DHT22;9477;51.414;10.362;2022-07-10T07:35:46;18.40;61.20
18694;DHT22;9477;51.414;10.362;2022-07-10T07:37:50;18.20;60.70
18694;DHT22;9477;51.414;10.362;2022-07-10T07:39:55;18.40;61.00
18694;DHT22;9477;51.414;10.362;2022-07-10T07:41:58;18.40;61.50
18694;DHT22;9477;51.414;10.362;2022-07-10T07:44:01;18.50;61.20
18694;DHT22;9477;51.414;10.362;2022-07-10T07:46:05;18.40;60.80
18694;DHT22;9477;51.414;10.362;2022-07-10T07:48:07;18.40;60.90
18694;DHT22;9477;51.414;10.362;2022-07-10T07:50:11;18.30;60.70
18694;DHT22;9477;51.414;10.362;2022-07-10T07:52:14;18.30;60.80
18694;DHT22;9477;51.414;10.362;2022-07-10T07:54:17;18.30;60.60
18694;DHT22;9477;51.414;10.362;2022-07-10T07:56:21;18.30;60.60
18694;DHT22;9477;51.414;10.362;2022-07-10T07:58:24;18.30;59.80
18694;DHT22;9477;51.414;10.362;2022-07-10T08:00:28;18.30;59.70
18694;DHT22;9477;51.414;10.362;2022-07-10T08:02:32;18.40;60.30
18694;DHT22;9477;51.414;10.362;2022-07-10T08:04:35;18.40;60.20
18694;DHT22;9477;51.414;10.362;2022-07-10T08:06:38;18.50;60.80
18694;DHT22;9477;51.414;10.362;2022-07-10T08:08:42;18.30;59.80
18694;DHT22;9477;51.414;10.362;2022-07-10T08:10:46;18.50;59.90
18694;DHT22;9477;51.414;10.362;2022-07-10T08:12:51;18.60;59.30
18694;DHT22;9477;51.414;10.362;2022-07-10T08:14:54;18.60;59.10
18694;DHT22;9477;51.414;10.362;2022-07-10T08:16:57;18.80;59.50
18694;DHT22;9477;51.414;10.362;2022-07-10T08:19:02;18.80;59.20
18694;DHT22;9477;51.414;10.362;2022-07-10T08:21:06;18.90;59.60
18694;DHT22;9477;51.414;10.362;2022-07-10T08:23:09;18.80;58.80
18694;DHT22;9477;51.414;10.362;2022-07-10T08:25:12;18.70;58.60
18694;DHT22;9477;51.414;10.362;2022-07-10T08:27:15;18.70;59.10
18694;DHT22;9477;51.414;10.362;2022-07-10T08:29:20;18.80;59.20
18694;DHT22;9477;51.414;10.362;2022-07-10T08:31:25;19.00;59.20
18694;DHT22;9477;51.414;10.362;2022-07-10T08:33:29;19.10;59.30
18694;DHT22;9477;51.414;10.362;2022-07-10T08:35:32;19.20;58.40
18694;DHT22;9477;51.414;10.362;2022-07-10T08:37:38;19.30;57.10
18694;DHT22;9477;51.414;10.362;2022-07-10T08:39:41;19.40;57.50
18694;DHT22;9477;51.414;10.362;2022-07-10T08:41:44;19.30;56.90
18694;DHT22;9477;51.414;10.362;2022-07-10T08:43:48;19.40;56.60
18694;DHT22;9477;51.414;10.362;2022-07-10T08:45:53;19.40;56.50
18694;DHT22;9477;51.414;10.362;2022-07-10T08:47:57;19.30;56.20
18694;DHT22;9477;51.414;10.362;2022-07-10T08:50:03;19.20;56.00
18694;DHT22;9477;51.414;10.362;2022-07-10T08:52:08;19.10;55.70
18694;DHT22;9477;51.414;10.362;2022-07-10T08:54:13;19.10;56.70
18694;DHT22;9477;51.414;10.362;2022-07-10T08:56:22;19.20;56.70
18694;DHT22;9477;51.414;10.362;2022-07-10T08:58:27;19.20;56.40
18694;DHT22;9477;51.414;10.362;2022-07-10T09:00:30;19.20;56.30
18694;DHT22;9477;51.414;10.362;2022-07-10T09:02:34;19.20;56.20
18694;DHT22;9477;51.414;10.362;2022-07-10T09:04:37;18.90;56.10
18694;DHT22;9477;51.414;10.362;2022-07-10T09:06:39;19.00;57.00
18694;DHT22;9477;51.414;10.362;2022-07-10T09:08:58;19.30;57.50
18694;DHT22;9477;51.414;10.362;2022-07-10T09:11:13;19.20;55.90
18694;DHT22;9477;51.414;10.362;2022-07-10T09:13:16;19.50;55.80
18694;DHT22;9477;51.414;10.362;2022-07-10T09:15:21;19.50;55.80
18694;DHT22;9477;51.414;10.362;2022-07-10T09:17:24;19.70;55.90
18694;DHT22;9477;51.414;10.362;2022-07-10T09:19:29;19.90;55.70
18694;DHT22;9477;51.414;10.362;2022-07-10T09:21:32;20.20;55.40
18694;DHT22;9477;51.414;10.362;2022-07-10T09:23:35;20.10;54.50
18694;DHT22;9477;51.414;10.362;2022-07-10T09:25:38;19.90;54.30
18694;DHT22;9477;51.414;10.362;2022-07-10T09:27:51;20.10;55.30
18694;DHT22;9477;51.414;10.362;2022-07-10T09:29:54;20.00;54.20
18694;DHT22;9477;51.414;10.362;2022-07-10T09:32:01;19.70;53.30
18694;DHT22;9477;51.414;10.362;2022-07-10T09:34:04;19.60;54.20
18694;DHT22;9477;51.414;10.362;2022-07-10T09:36:10;19.60;54.70
18694;DHT22;9477;51.414;10.362;2022-07-10T09:38:13;19.80;55.20
18694;DHT22;9477;51.414;10.362;2022-07-10T09:40:15;19.80;54.50
18694;DHT22;9477;51.414;10.362;2022-07-10T09:42:25;19.90;54.90
18694;DHT22;9477;51.414;10.362;2022-07-10T09:44:28;20.20;55.50
18694;DHT22;9477;51.414;10.362;2022-07-10T09:46:33;20.60;55.40
18694;DHT22;9477;51.414;10.362;2022-07-10T09:48:36;20.50;54.30
18694;DHT22;9477;51.414;10.362;2022-07-10T09:50:39;20.40;53.90
18694;DHT22;9477;51.414;10.362;2022-07-10T09:52:44;20.60;54.50
18694;DHT22;9477;51.414;10.362;2022-07-10T09:54:48;20.60;52.20
18694;DHT22;9477;51.414;10.362;2022-07-10T09:56:51;20.40;52.20
18694;DHT22;9477;51.414;10.362;2022-07-10T09:58:57;20.80;53.50
18694;DHT22;9477;51.414;10.362;2022-07-10T10:01:03;21.10;52.60
18694;DHT22;9477;51.414;10.362;2022-07-10T10:03:07;21.50;52.80
18694;DHT22;9477;51.414;10.362;2022-07-10T10:05:10;21.80;52.40
18694;DHT22;9477;51.414;10.362;2022-07-10T10:07:18;21.70;50.50
18694;DHT22;9477;51.414;10.362;2022-07-10T10:09:24;21.50;50.10
18694;DHT22;9477;51.414;10.362;2022-07-10T10:11:32;21.30;50.30
18694;DHT22;9477;51.414;10.362;2022-07-10T10:13:36;21.00;50.20
18694;DHT22;9477;51.414;10.362;2022-07-10T10:15:40;20.60;50.00
18694;DHT22;9477;51.414;10.362;2022-07-10T10:17:45;20.90;50.60
18694;DHT22;9477;51.414;10.362;2022-07-10T10:19:50;20.80;51.30
18694;DHT22;9477;51.414;10.362;2022-07-10T10:22:12;20.90;51.70
18694;DHT22;9477;51.414;10.362;2022-07-10T10:24:17;21.00;52.30
18694;DHT22;9477;51.414;10.362;2022-07-10T10:26:22;21.10;52.30
18694;DHT22;9477;51.414;10.362;2022-07-10T10:28:26;21.20;51.30
18694;DHT22;9477;51.414;10.362;2022-07-10T10:30:30;21.30;49.50
18694;DHT22;9477;51.414;10.362;2022-07-10T10:32:32;21.30;49.90
18694;DHT22;9477;51.414;10.362;2022-07-10T10:34:40;21.20;50.10
18694;DHT22;9477;51.414;10.362;2022-07-10T10:36:48;21.20;49.40
18694;DHT22;9477;51.414;10.362;2022-07-10T10:39:00;20.80;48.90
18694;DHT22;9477;51.414;10.362;2022-07-10T10:41:25;20.90;50.10
18694;DHT22;9477;51.414;10.362;2022-07-10T10:43:28;21.30;50.10
18694;DHT22;9477;51.414;10.362;2022-07-10T10:45:31;21.60;51.00
18694;DHT22;9477;51.414;10.362;2022-07-10T10:47:57;21.70;50.30
18694;DHT22;9477;51.414;10.362;2022-07-10T10:50:36;21.80;49.30
18694;DHT22;9477;51.414;10.362;2022-07-10T10:52:59;22.00;49.40
18694;DHT22;9477;51.414;10.362;2022-07-10T10:55:04;22.10;49.40
18694;DHT22;9477;51.414;10.362;2022-07-10T10:57:14;22.20;49.80
18694;DHT22;9477;51.414;10.362;2022-07-10T11:02:22;22.60;48.60
18694;DHT22;9477;51.414;10.362;2022-07-10T11:04:27;22.60;48.80
18694;DHT22;9477;51.414;10.362;2022-07-10T11:06:39;22.40;47.70
18694;DHT22;9477;51.414;10.362;2022-07-10T11:08:42;22.30;48.20
18694;DHT22;9477;51.414;10.362;2022-07-10T11:10:46;22.20;49.20
18694;DHT22;9477;51.414;10.362;2022-07-10T11:12:59;22.20;49.10
18694;DHT22;9477;51.414;10.362;2022-07-10T11:15:03;22.40;49.90
18694;DHT22;9477;51.414;10.362;2022-07-10T11:17:10;22.50;49.60
18694;DHT22;9477;51.414;10.362;2022-07-10T11:19:22;22.00;48.60
18694;DHT22;9477;51.414;10.362;2022-07-10T11:21:25;22.00;49.60
18694;DHT22;9477;51.414;10.362;2022-07-10T11:23:48;22.00;50.20
18694;DHT22;9477;51.414;10.362;2022-07-10T11:26:02;22.00;50.00
18694;DHT22;9477;51.414;10.362;2022-07-10T11:28:11;21.70;50.10
18694;DHT22;9477;51.414;10.362;2022-07-10T11:30:15;22.10;51.50
18694;DHT22;9477;51.414;10.362;2022-07-10T11:32:18;22.40;51.50
18694;DHT22;9477;51.414;10.362;2022-07-10T11:34:22;22.60;51.50
18694;DHT22;9477;51.414;10.362;2022-07-10T11:36:26;22.80;51.60
18694;DHT22;9477;51.414;10.362;2022-07-10T11:38:30;22.60;50.60
18694;DHT22;9477;51.414;10.362;2022-07-10T11:40:35;22.60;50.60
18694;DHT22;9477;51.414;10.362;2022-07-10T11:42:49;22.60;51.10
18694;DHT22;9477;51.414;10.362;2022-07-10T11:44:54;22.50;51.30
18694;DHT22;9477;51.414;10.362;2022-07-10T11:46:57;22.50;51.30
18694;DHT22;9477;51.414;10.362;2022-07-10T11:49:03;22.20;51.10
18694;DHT22;9477;51.414;10.362;2022-07-10T11:51:19;22.30;51.90
18694;DHT22;9477;51.414;10.362;2022-07-10T11:53:23;22.20;51.70
18694;DHT22;9477;51.414;10.362;2022-07-10T11:55:27;22.10;51.60
18694;DHT22;9477;51.414;10.362;2022-07-10T11:57:40;22.10;51.50
18694;DHT22;9477;51.414;10.362;2022-07-10T11:59:45;21.90;52.60
18694;DHT22;9477;51.414;10.362;2022-07-10T12:01:51;21.80;52.50
18694;DHT22;9477;51.414;10.362;2022-07-10T12:03:59;21.90;52.30
18694;DHT22;9477;51.414;10.362;2022-07-10T12:06:04;22.00;52.90
18694;DHT22;9477;51.414;10.362;2022-07-10T12:08:08;22.30;53.00
18694;DHT22;9477;51.414;10.362;2022-07-10T12:10:10;22.60;52.30
18694;DHT22;9477;51.414;10.362;2022-07-10T12:12:13;22.80;51.40
18694;DHT22;9477;51.414;10.362;2022-07-10T12:14:18;22.80;50.00
18694;DHT22;9477;51.414;10.362;2022-07-10T12:16:23;23.10;50.40
18694;DHT22;9477;51.414;10.362;2022-07-10T12:18:27;22.90;48.20
18694;DHT22;9477;51.414;10.362;2022-07-10T12:20:31;22.80;48.40
18694;DHT22;9477;51.414;10.362;2022-07-10T12:22:34;22.50;49.00
18694;DHT22;9477;51.414;10.362;2022-07-10T12:24:38;22.40;49.30
18694;DHT22;9477;51.414;10.362;2022-07-10T12:26:42;22.50;49.50
18694;DHT22;9477;51.414;10.362;2022-07-10T12:28:52;22.60;48.90
18694;DHT22;9477;51.414;10.362;2022-07-10T12:30:55;22.60;47.50
18694;DHT22;9477;51.414;10.362;2022-07-10T12:33:06;22.90;47.40
18694;DHT22;9477;51.414;10.362;2022-07-10T12:35:10;22.30;46.30
18694;DHT22;9477;51.414;10.362;2022-07-10T12:37:16;22.50;46.50
18694;DHT22;9477;51.414;10.362;2022-07-10T12:39:21;22.50;46.30
18694;DHT22;9477;51.414;10.362;2022-07-10T12:41:25;22.50;46.00
18694;DHT22;9477;51.414;10.362;2022-07-10T12:43:28;22.60;47.00
18694;DHT22;9477;51.414;10.362;2022-07-10T12:45:31;22.70;47.80
18694;DHT22;9477;51.414;10.362;2022-07-10T12:47:43;22.50;47.00
18694;DHT22;9477;51.414;10.362;2022-07-10T12:49:50;22.60;47.60
18694;DHT22;9477;51.414;10.362;2022-07-10T12:51:54;22.40;47.00
18694;DHT22;9477;51.414;10.362;2022-07-10T12:54:32;22.30;47.10
18694;DHT22;9477;51.414;10.362;2022-07-10T12:56:36;22.40;48.00
18694;DHT22;9477;51.414;10.362;2022-07-10T12:58:43;22.50;48.20
18694;DHT22;9477;51.414;10.362;2022-07-10T13:00:46;22.40;47.90
18694;DHT22;9477;51.414;10.362;2022-07-10T13:02:57;22.80;48.80
18694;DHT22;9477;51.414;10.362;2022-07-10T13:05:01;22.90;49.10
18694;DHT22;9477;51.414;10.362;2022-07-10T13:07:13;23.20;48.50
18694;DHT22;9477;51.414;10.362;2022-07-10T13:09:21;23.10;48.20